createdAt,value
2023-04-29T00:02:23.694Z,0.40
2023-04-29T00:04:50.591Z,0.20
2023-04-29T00:07:17.353Z,0.20
2023-04-29T00:09:44.012Z,0.65
2023-04-29T00:12:10.696Z,0.17
2023-04-29T00:14:37.242Z,0.03
2023-04-29T00:17:03.862Z,0.20
2023-04-29T00:19:30.680Z,1.67
2023-04-29T00:21:57.270Z,0.20
2023-04-29T00:24:24.386Z,0.13
2023-04-29T00:26:51.046Z,0.38
2023-04-29T00:29:17.617Z,0.30
2023-04-29T00:31:44.896Z,0.20
2023-04-29T00:34:11.936Z,0.17
2023-04-29T00:36:38.579Z,0.05
2023-04-29T00:39:07.554Z,0.30
2023-04-29T00:41:34.609Z,0.10
2023-04-29T00:44:01.313Z,0.20
2023-04-29T00:46:28.164Z,1.20
2023-04-29T00:48:55.102Z,0.38
2023-04-29T00:51:22.300Z,0.20
2023-04-29T00:53:49.742Z,1.08
2023-04-29T00:56:16.782Z,0.70
2023-04-29T00:58:44.399Z,0.13
2023-04-29T01:01:11.664Z,0.55
2023-04-29T01:03:38.923Z,0.10
2023-04-29T01:06:34.269Z,0.15
2023-04-29T01:09:22.195Z,0.55
2023-04-29T01:14:28.121Z,0.17
2023-04-29T01:17:00.445Z,0.45
2023-04-29T01:19:41.556Z,0.30
2023-04-29T01:22:08.300Z,1.35
2023-04-29T01:24:35.428Z,0.20
2023-04-29T01:27:20.755Z,1.40
2023-04-29T01:30:17.401Z,2.30
2023-04-29T01:32:54.506Z,0.65
2023-04-29T01:35:39.934Z,0.30
2023-04-29T01:38:30.768Z,0.25
2023-04-29T01:41:13.218Z,0.13
2023-04-29T01:43:41.151Z,1.05
2023-04-29T01:46:18.239Z,0.90
2023-04-29T01:48:45.295Z,0.65
2023-04-29T01:51:12.324Z,0.57
2023-04-29T01:53:39.561Z,0.40
2023-04-29T01:56:08.150Z,0.82
2023-04-29T01:58:46.916Z,1.55
2023-04-29T02:01:36.471Z,2.97
2023-04-29T02:06:30.991Z,0.60
2023-04-29T02:09:00.700Z,1.58
2023-04-29T02:11:27.355Z,0.98
2023-04-29T02:13:56.335Z,4.43
2023-04-29T02:16:23.178Z,1.67
2023-04-29T02:18:58.398Z,2.60
2023-04-29T02:23:52.785Z,1.30
2023-04-29T02:26:22.720Z,1.05
2023-04-29T02:28:49.658Z,1.75
2023-04-29T02:31:16.251Z,2.40
2023-04-29T02:33:47.110Z,1.15
2023-04-29T02:36:13.783Z,0.63
2023-04-29T02:38:40.383Z,1.40
2023-04-29T02:41:07.251Z,0.55
2023-04-29T02:43:33.909Z,0.50
2023-04-29T02:46:00.713Z,1.40
2023-04-29T02:48:27.534Z,3.47
2023-04-29T02:50:54.120Z,0.45
2023-04-29T02:53:20.931Z,2.15
2023-04-29T02:55:47.579Z,0.70
2023-04-29T02:58:14.646Z,0.40
2023-04-29T03:00:41.766Z,0.40
2023-04-29T03:03:08.627Z,1.10
2023-04-29T03:05:35.594Z,0.22
2023-04-29T03:08:02.543Z,0.63
2023-04-29T03:10:29.163Z,1.15
2023-04-29T03:12:55.983Z,0.85
2023-04-29T03:15:22.693Z,0.82
2023-04-29T03:17:51.172Z,0.95
2023-04-29T03:20:17.978Z,3.03
2023-04-29T03:22:44.639Z,0.30
2023-04-29T03:25:11.329Z,9.27
2023-04-29T03:27:39.707Z,0.45
2023-04-29T03:30:07.865Z,0.30
2023-04-29T03:32:37.488Z,0.55
2023-04-29T03:35:04.410Z,0.80
2023-04-29T03:37:41.235Z,0.65
2023-04-29T03:40:23.614Z,2.97
2023-04-29T03:42:50.802Z,0.32
2023-04-29T03:45:18.353Z,0.30
2023-04-29T03:47:44.945Z,0.93
2023-04-29T03:50:11.724Z,0.52
2023-04-29T03:52:39.302Z,0.63
2023-04-29T03:55:11.133Z,1.23
2023-04-29T03:57:38.311Z,4.28
2023-04-29T04:00:06.646Z,2.50
2023-04-29T04:02:40.413Z,3.00
2023-04-29T04:05:09.440Z,0.32
2023-04-29T04:07:37.122Z,2.03
2023-04-29T04:10:26.956Z,0.22
2023-04-29T04:12:54.016Z,0.75
2023-04-29T04:15:21.037Z,0.57
2023-04-29T04:17:48.417Z,0.67
2023-04-29T04:20:15.610Z,0.50
2023-04-29T04:22:42.346Z,0.73
2023-04-29T04:25:19.274Z,0.95
2023-04-29T04:27:45.880Z,0.40
2023-04-29T04:30:22.351Z,0.60
2023-04-29T04:32:49.715Z,1.52
2023-04-29T04:35:16.930Z,1.08
2023-04-29T04:37:43.818Z,1.92
2023-04-29T04:40:11.318Z,1.73
2023-04-29T04:42:55.146Z,1.35
2023-04-29T04:45:22.051Z,1.00
2023-04-29T04:47:50.837Z,1.77
2023-04-29T04:50:30.649Z,0.90
2023-04-29T04:52:57.542Z,0.68
2023-04-29T04:55:40.668Z,0.45
2023-04-29T04:58:08.282Z,1.75
2023-04-29T05:00:44.469Z,2.85
2023-04-29T05:03:11.934Z,0.70
2023-04-29T05:05:38.604Z,0.40
2023-04-29T05:08:05.565Z,0.47
2023-04-29T05:10:38.569Z,1.65
2023-04-29T05:13:09.228Z,1.13
2023-04-29T05:15:38.334Z,0.68
2023-04-29T05:18:07.445Z,0.40
2023-04-29T05:20:37.886Z,1.05
2023-04-29T05:23:04.988Z,1.23
2023-04-29T05:25:36.568Z,0.65
2023-04-29T05:28:03.671Z,1.15
2023-04-29T05:30:32.917Z,2.03
2023-04-29T05:32:59.924Z,2.05
2023-04-29T05:35:27.626Z,1.48
2023-04-29T05:37:54.905Z,2.10
2023-04-29T05:40:35.896Z,1.67
2023-04-29T05:43:23.068Z,2.72
2023-04-29T05:45:53.817Z,0.60
2023-04-29T05:48:20.438Z,1.10
2023-04-29T05:50:47.078Z,1.75
2023-04-29T05:53:13.847Z,2.08
2023-04-29T05:55:41.731Z,1.73
2023-04-29T05:58:08.394Z,0.90
2023-04-29T06:00:34.998Z,1.40
2023-04-29T06:03:10.435Z,1.85
2023-04-29T06:05:37.851Z,1.50
2023-04-29T06:08:30.943Z,1.55
2023-04-29T06:11:10.829Z,1.77
2023-04-29T06:13:37.744Z,2.22
2023-04-29T06:16:05.797Z,0.70
2023-04-29T06:18:33.982Z,4.68
2023-04-29T06:21:00.669Z,1.40
2023-04-29T06:23:27.291Z,1.90
2023-04-29T06:25:54.327Z,1.05
2023-04-29T06:28:21.917Z,1.80
2023-04-29T06:30:48.758Z,2.47
2023-04-29T06:33:16.028Z,2.08
2023-04-29T06:35:42.892Z,1.50
2023-04-29T06:38:09.431Z,1.23
2023-04-29T06:40:54.458Z,1.35
2023-04-29T06:43:45.132Z,4.93
2023-04-29T06:46:34.715Z,2.63
2023-04-29T06:49:04.893Z,1.58
2023-04-29T06:51:32.358Z,3.83
2023-04-29T06:53:59.503Z,1.58
2023-04-29T06:56:26.186Z,1.23
2023-04-29T06:58:52.788Z,3.53
2023-04-29T07:01:19.473Z,9.20
2023-04-29T07:03:46.314Z,1.50
2023-04-29T07:06:13.228Z,2.47
2023-04-29T07:08:39.936Z,2.60
2023-04-29T07:13:34.476Z,1.30
2023-04-29T07:16:01.172Z,1.27
2023-04-29T07:18:27.977Z,2.75
2023-04-29T07:21:01.288Z,2.00
2023-04-29T07:23:28.137Z,2.13
2023-04-29T07:25:54.703Z,3.38
2023-04-29T07:28:21.330Z,2.75
2023-04-29T07:30:48.322Z,2.33
2023-04-29T07:33:15.026Z,3.35
2023-04-29T07:35:41.623Z,2.03
2023-04-29T07:38:09.081Z,3.72
2023-04-29T07:40:35.719Z,2.42
2023-04-29T07:43:03.186Z,3.05
2023-04-29T07:45:29.785Z,6.82
2023-04-29T07:47:56.460Z,3.67
2023-04-29T07:50:23.216Z,3.05
2023-04-29T07:52:49.816Z,3.78
2023-04-29T07:55:16.585Z,4.07
2023-04-29T07:57:43.262Z,4.05
2023-04-29T08:00:10.312Z,2.92
2023-04-29T08:02:45.892Z,3.20
2023-04-29T08:05:15.612Z,4.25
2023-04-29T08:07:42.628Z,4.07
2023-04-29T08:10:09.974Z,4.07
2023-04-29T08:12:38.544Z,6.60
2023-04-29T08:15:09.794Z,3.42
2023-04-29T08:17:36.819Z,3.10
2023-04-29T08:20:04.002Z,5.18
2023-04-29T08:22:30.911Z,4.13
2023-04-29T08:24:57.640Z,3.75
2023-04-29T08:27:24.307Z,3.50
2023-04-29T08:29:51.068Z,3.00
2023-04-29T08:32:17.943Z,3.88
2023-04-29T08:34:44.594Z,2.75
2023-04-29T08:37:11.645Z,2.38
2023-04-29T08:39:38.270Z,2.05
2023-04-29T08:42:10.930Z,2.47
2023-04-29T08:44:38.304Z,3.58
2023-04-29T08:47:05.656Z,4.20
2023-04-29T08:49:32.887Z,2.07
2023-04-29T08:52:00.472Z,2.60
2023-04-29T08:54:27.150Z,3.40
2023-04-29T08:56:55.559Z,2.40
2023-04-29T08:59:23.452Z,2.95
2023-04-29T09:01:52.519Z,1.73
2023-04-29T09:04:45.156Z,2.45
2023-04-29T09:07:12.065Z,1.77
2023-04-29T09:09:40.892Z,2.17
2023-04-29T09:12:07.615Z,2.88
2023-04-29T09:14:34.188Z,2.45
2023-04-29T09:17:00.792Z,2.22
2023-04-29T09:19:32.145Z,2.67
2023-04-29T09:21:59.565Z,3.00
2023-04-29T09:24:28.002Z,2.78
2023-04-29T09:26:55.262Z,1.80
2023-04-29T09:29:22.440Z,1.73
2023-04-29T09:31:50.034Z,2.42
2023-04-29T09:34:16.687Z,2.05
2023-04-29T09:36:48.450Z,3.75
2023-04-29T09:39:17.317Z,1.27
2023-04-29T09:41:53.265Z,1.27
2023-04-29T09:44:22.864Z,1.90
2023-04-29T09:47:06.955Z,2.25
2023-04-29T09:49:38.873Z,2.10
2023-04-29T09:52:07.656Z,3.40
2023-04-29T09:54:35.900Z,1.15
2023-04-29T09:57:03.684Z,1.48
2023-04-29T09:59:30.251Z,1.77
2023-04-29T10:01:58.963Z,2.97
2023-04-29T10:04:27.374Z,3.10
2023-04-29T10:06:56.081Z,1.63
2023-04-29T10:09:23.975Z,1.33
2023-04-29T10:11:53.104Z,1.35
2023-04-29T10:14:24.062Z,0.95
2023-04-29T10:16:59.358Z,1.77
2023-04-29T10:19:47.981Z,2.80
2023-04-29T10:22:26.993Z,1.27
2023-04-29T10:24:55.659Z,1.48
2023-04-29T10:27:24.843Z,1.50
2023-04-29T10:29:53.888Z,0.80
2023-04-29T10:32:22.505Z,0.93
2023-04-29T10:34:51.590Z,2.33
2023-04-29T10:37:19.189Z,1.38
2023-04-29T10:40:04.782Z,3.63
2023-04-29T10:42:42.938Z,4.80
2023-04-29T10:45:22.205Z,2.47
2023-04-29T10:48:04.154Z,2.47
2023-04-29T10:50:39.866Z,1.30
2023-04-29T10:53:06.526Z,3.25
2023-04-29T10:55:36.846Z,1.30
2023-04-29T10:58:05.032Z,2.53
2023-04-29T11:00:34.138Z,6.47
2023-04-29T11:03:02.447Z,2.88
2023-04-29T11:05:35.647Z,2.20
2023-04-29T11:08:19.516Z,2.65
2023-04-29T11:10:46.157Z,3.85
2023-04-29T11:13:27.488Z,1.98
2023-04-29T11:16:03.927Z,11.40
2023-04-29T11:18:30.800Z,1.42
2023-04-29T11:21:05.949Z,2.15
2023-04-29T11:23:36.689Z,1.60
2023-04-29T11:26:03.805Z,1.40
2023-04-29T11:28:32.112Z,2.65
2023-04-29T11:30:59.699Z,3.78
2023-04-29T11:33:27.630Z,1.83
2023-04-29T11:35:55.296Z,2.17
2023-04-29T11:38:29.280Z,1.30
2023-04-29T11:40:59.852Z,1.92
2023-04-29T11:43:26.487Z,0.90
2023-04-29T11:45:53.892Z,1.85
2023-04-29T11:48:25.061Z,1.58
2023-04-29T11:50:57.668Z,1.17
2023-04-29T11:53:26.162Z,1.25
2023-04-29T11:55:56.288Z,2.38
2023-04-29T11:58:23.822Z,1.10
2023-04-29T12:00:51.197Z,1.25
2023-04-29T12:03:20.150Z,1.77
2023-04-29T12:05:56.375Z,1.15
2023-04-29T12:08:24.737Z,1.38
2023-04-29T12:10:53.116Z,1.80
2023-04-29T12:13:20.481Z,2.13
2023-04-29T12:15:48.819Z,1.35
2023-04-29T12:18:18.064Z,1.08
2023-04-29T12:20:45.729Z,1.10
2023-04-29T12:23:17.278Z,1.15
2023-04-29T12:25:49.268Z,2.10
2023-04-29T12:28:17.173Z,1.67
2023-04-29T12:30:47.587Z,1.33
2023-04-29T12:33:24.764Z,1.90
2023-04-29T12:35:52.631Z,0.85
2023-04-29T12:38:30.714Z,0.73
2023-04-29T12:40:59.623Z,0.60
2023-04-29T12:43:30.444Z,1.25
2023-04-29T12:46:07.668Z,1.42
2023-04-29T12:48:37.983Z,0.73
2023-04-29T12:51:05.211Z,1.50
2023-04-29T12:53:32.113Z,0.80
2023-04-29T12:55:59.326Z,1.60
2023-04-29T12:58:29.264Z,2.40
2023-04-29T13:00:56.336Z,1.52
2023-04-29T13:03:23.280Z,1.45
2023-04-29T13:05:50.271Z,1.00
2023-04-29T13:08:17.100Z,0.70
2023-04-29T13:10:43.713Z,1.50
2023-04-29T13:13:10.295Z,1.52
2023-04-29T13:15:37.656Z,0.65
2023-04-29T13:18:04.477Z,1.65
2023-04-29T13:20:31.154Z,1.42
2023-04-29T13:22:57.721Z,1.65
2023-04-29T13:25:24.365Z,1.42
2023-04-29T13:27:51.107Z,1.17
2023-04-29T13:30:17.709Z,1.50
2023-04-29T13:32:51.342Z,2.50
2023-04-29T13:35:21.235Z,0.60
2023-04-29T13:37:47.828Z,0.70
2023-04-29T13:40:20.540Z,1.02
2023-04-29T13:42:50.517Z,0.88
2023-04-29T13:45:19.900Z,0.68
2023-04-29T13:48:06.788Z,1.38
2023-04-29T13:53:32.840Z,1.45
2023-04-29T13:56:46.409Z,1.03
2023-04-29T14:01:34.001Z,1.10
2023-04-29T14:03:52.677Z,2.20
2023-04-29T14:06:19.433Z,0.40
2023-04-29T14:08:46.195Z,1.23
2023-04-29T14:11:12.775Z,2.13
2023-04-29T14:13:39.359Z,0.90
2023-04-29T14:16:06.608Z,2.25
2023-04-29T14:18:33.301Z,1.15
2023-04-29T14:20:59.924Z,0.50
2023-04-29T14:23:26.660Z,0.68
2023-04-29T14:25:54.648Z,0.25
2023-04-29T14:28:21.620Z,0.43
2023-04-29T14:30:48.216Z,0.60
2023-04-29T14:33:14.809Z,1.15
2023-04-29T14:35:42.300Z,0.47
2023-04-29T14:38:08.996Z,1.08
2023-04-29T14:40:35.696Z,0.93
2023-04-29T14:43:02.286Z,0.85
2023-04-29T14:45:29.213Z,2.05
2023-04-29T14:47:55.833Z,1.05
2023-04-29T14:50:22.743Z,1.33
2023-04-29T14:52:49.372Z,0.82
2023-04-29T14:55:16.027Z,0.38
2023-04-29T14:57:42.968Z,0.30
2023-04-29T15:00:10.211Z,1.17
2023-04-29T15:02:36.831Z,1.37
2023-04-29T15:05:03.561Z,3.00
2023-04-29T15:07:31.727Z,5.47
2023-04-29T15:09:58.575Z,0.60
2023-04-29T15:12:25.430Z,1.02
2023-04-29T15:14:52.302Z,2.42
2023-04-29T15:17:19.537Z,0.40
2023-04-29T15:19:46.268Z,1.20
2023-04-29T15:22:12.932Z,2.47
2023-04-29T15:24:39.540Z,0.52
2023-04-29T15:27:06.103Z,0.52
2023-04-29T15:29:32.721Z,0.77
2023-04-29T15:31:59.333Z,1.27
2023-04-29T15:34:25.916Z,0.52
2023-04-29T15:36:52.803Z,2.88
2023-04-29T15:39:19.381Z,1.95
2023-04-29T15:41:46.182Z,1.05
2023-04-29T15:44:12.753Z,0.82
2023-04-29T15:46:39.352Z,0.60
2023-04-29T15:49:06.016Z,0.50
2023-04-29T15:51:32.899Z,0.65
2023-04-29T15:53:59.470Z,0.43
2023-04-29T15:56:26.135Z,2.20
2023-04-29T15:58:52.809Z,1.25
2023-04-29T16:01:19.896Z,1.10
2023-04-29T16:03:46.514Z,1.35
2023-04-29T16:06:13.186Z,1.70
2023-04-29T16:08:39.783Z,0.88
2023-04-29T16:11:06.389Z,1.13
2023-04-29T16:13:34.978Z,0.73
2023-04-29T16:16:02.996Z,2.17
2023-04-29T16:18:29.612Z,0.60
2023-04-29T16:20:56.252Z,3.22
2023-04-29T16:23:22.896Z,2.22
2023-04-29T16:25:49.534Z,1.60
2023-04-29T16:28:16.225Z,1.77
2023-04-29T16:30:42.766Z,2.63
2023-04-29T16:33:09.322Z,3.72
2023-04-29T16:35:36.786Z,1.63
2023-04-29T16:38:03.488Z,0.70
2023-04-29T16:40:30.111Z,2.35
2023-04-29T16:42:56.656Z,1.38
2023-04-29T16:45:26.547Z,3.17
2023-04-29T16:47:53.283Z,1.40
2023-04-29T16:50:20.068Z,1.80
2023-04-29T16:52:46.682Z,1.73
2023-04-29T16:55:13.304Z,0.68
2023-04-29T16:57:39.944Z,3.72
2023-04-29T17:00:07.976Z,3.75
2023-04-29T17:05:01.118Z,2.40
2023-04-29T17:07:27.885Z,1.52
2023-04-29T17:09:54.743Z,1.65
2023-04-29T17:12:21.710Z,1.10
2023-04-29T17:14:48.279Z,3.10
2023-04-29T17:17:14.911Z,1.67
2023-04-29T17:19:41.498Z,1.27
2023-04-29T17:22:08.071Z,1.63
2023-04-29T17:24:34.674Z,1.80
2023-04-29T17:27:01.270Z,1.70
2023-04-29T17:29:27.803Z,1.30
2023-04-29T17:31:54.425Z,1.20
2023-04-29T17:34:21.031Z,2.50
2023-04-29T17:36:47.679Z,1.92
2023-04-29T17:39:14.576Z,7.47
2023-04-29T17:41:41.163Z,2.72
2023-04-29T17:44:08.248Z,8.65
2023-04-29T17:46:40.194Z,7.57
2023-04-29T17:49:07.175Z,6.38
2023-04-29T17:51:33.765Z,4.93
2023-04-29T17:54:01.499Z,5.90
2023-04-29T17:56:28.136Z,1.98
2023-04-29T17:58:54.899Z,2.00
2023-04-29T18:01:21.555Z,2.28
2023-04-29T18:03:48.358Z,2.17
2023-04-29T18:06:15.053Z,1.77
2023-04-29T18:08:41.618Z,2.53
2023-04-29T18:11:08.253Z,3.75
2023-04-29T18:13:35.559Z,2.67
2023-04-29T18:16:02.135Z,4.17
2023-04-29T18:18:28.687Z,3.00
2023-04-29T18:20:55.307Z,2.75
2023-04-29T18:23:22.188Z,3.55
2023-04-29T18:25:48.781Z,3.50
2023-04-29T18:28:24.620Z,4.95
2023-04-29T18:30:52.573Z,6.43
2023-04-29T18:33:19.448Z,3.40
2023-04-29T18:35:46.259Z,2.05
2023-04-29T18:38:12.872Z,3.63
2023-04-29T18:40:39.788Z,2.80
2023-04-29T18:43:06.663Z,2.70
2023-04-29T18:45:33.383Z,2.58
2023-04-29T18:48:00.125Z,7.10
2023-04-29T18:50:26.856Z,5.75
2023-04-29T18:52:53.570Z,4.75
2023-04-29T18:55:20.219Z,5.30
2023-04-29T18:57:46.901Z,8.32
2023-04-29T19:00:13.896Z,5.53
2023-04-29T19:02:40.481Z,6.07
2023-04-29T19:05:07.681Z,8.30
2023-04-29T19:07:34.959Z,12.32
2023-04-29T19:10:01.706Z,13.60
2023-04-29T19:12:28.563Z,20.20
2023-04-29T19:14:55.330Z,29.00
2023-04-29T19:17:21.965Z,33.83
2023-04-29T19:19:48.551Z,63.90
2023-04-29T19:22:15.524Z,22.33
2023-04-29T19:24:42.988Z,9.27
2023-04-29T19:27:10.383Z,4.57
2023-04-29T19:29:37.026Z,3.57
2023-04-29T19:32:04.133Z,7.32
2023-04-29T19:34:30.772Z,8.88
2023-04-29T19:36:57.369Z,8.43
2023-04-29T19:39:24.099Z,5.28
2023-04-29T19:41:50.641Z,4.05
2023-04-29T19:44:17.215Z,3.45
2023-04-29T19:46:43.902Z,2.80
2023-04-29T19:49:10.550Z,3.35
2023-04-29T19:51:37.157Z,6.70
2023-04-29T19:54:03.859Z,2.67
2023-04-29T19:56:30.449Z,4.22
2023-04-29T19:58:57.072Z,4.05
2023-04-29T20:01:23.741Z,3.35
2023-04-29T20:03:50.338Z,4.88
2023-04-29T20:06:17.269Z,3.40
2023-04-29T20:08:44.190Z,4.30
2023-04-29T20:11:10.838Z,3.90
2023-04-29T20:13:37.418Z,3.22
2023-04-29T20:16:04.161Z,4.88
2023-04-29T20:18:30.806Z,3.42
2023-04-29T20:20:57.456Z,3.25
2023-04-29T20:23:24.147Z,3.58
2023-04-29T20:25:50.748Z,3.50
2023-04-29T20:28:17.357Z,6.38
2023-04-29T20:30:44.018Z,3.90
2023-04-29T20:33:10.698Z,4.15
2023-04-29T20:35:37.318Z,5.38
2023-04-29T20:38:03.947Z,4.68
2023-04-29T20:40:30.617Z,4.97
2023-04-29T20:42:57.483Z,4.78
2023-04-29T20:45:24.216Z,5.20
2023-04-29T20:47:50.948Z,4.25
2023-04-29T20:50:17.582Z,6.57
2023-04-29T20:52:44.415Z,4.03
2023-04-29T20:55:11.099Z,4.10
2023-04-29T20:57:37.653Z,4.47
2023-04-29T21:00:04.507Z,4.60
2023-04-29T21:02:31.225Z,2.97
2023-04-29T21:04:57.898Z,5.55
2023-04-29T21:07:24.533Z,4.70
2023-04-29T21:09:51.226Z,5.93
2023-04-29T21:12:17.850Z,4.28
2023-04-29T21:14:44.462Z,3.80
2023-04-29T21:17:11.042Z,4.05
2023-04-29T21:19:37.713Z,7.65
2023-04-29T21:22:04.710Z,6.00
2023-04-29T21:24:31.282Z,5.18
2023-04-29T21:26:58.030Z,4.00
2023-04-29T21:29:24.618Z,3.90
2023-04-29T21:31:51.312Z,3.20
2023-04-29T21:34:17.975Z,4.82
2023-04-29T21:36:44.565Z,3.42
2023-04-29T21:39:11.276Z,2.80
2023-04-29T21:41:39.345Z,2.70
2023-04-29T21:44:07.169Z,2.85
2023-04-29T21:46:34.743Z,2.60
2023-04-29T21:49:02.866Z,3.28
2023-04-29T21:51:30.010Z,4.45
2023-04-29T21:53:56.699Z,2.72
2023-04-29T21:56:23.301Z,2.33
2023-04-29T21:58:50.050Z,3.08
2023-04-29T22:01:16.855Z,3.60
2023-04-29T22:03:43.491Z,2.80
2023-04-29T22:06:10.159Z,3.05
2023-04-29T22:08:36.752Z,2.35
2023-04-29T22:11:03.486Z,3.00
2023-04-29T22:13:30.138Z,3.22
2023-04-29T22:15:56.715Z,3.15
2023-04-29T22:18:23.338Z,3.67
2023-04-29T22:20:49.989Z,3.28
2023-04-29T22:23:16.586Z,3.10
2023-04-29T22:25:43.146Z,4.35
2023-04-29T22:28:09.810Z,4.32
2023-04-29T22:30:36.418Z,5.30
2023-04-29T22:33:03.036Z,6.97
2023-04-29T22:35:29.649Z,5.88
2023-04-29T22:37:56.397Z,4.38
2023-04-29T22:40:23.141Z,5.85
2023-04-29T22:42:49.822Z,5.15
2023-04-29T22:45:16.556Z,4.38
2023-04-29T22:47:43.267Z,4.18
2023-04-29T22:50:10.234Z,5.63
2023-04-29T22:52:36.896Z,6.97
2023-04-29T22:55:03.713Z,5.97
2023-04-29T22:57:30.410Z,5.07
2023-04-29T22:59:57.650Z,2.63
2023-04-29T23:02:25.208Z,5.45
2023-04-29T23:04:51.893Z,4.53
2023-04-29T23:07:18.595Z,4.28
2023-04-29T23:09:45.259Z,4.13
2023-04-29T23:12:11.821Z,3.92
2023-04-29T23:14:38.384Z,2.88
2023-04-29T23:17:05.034Z,4.97
2023-04-29T23:19:31.603Z,4.53
2023-04-29T23:21:58.264Z,5.40
2023-04-29T23:24:24.885Z,4.07
2023-04-29T23:26:51.901Z,4.35
2023-04-29T23:29:18.587Z,5.32
2023-04-29T23:31:46.039Z,7.15
2023-04-29T23:34:12.734Z,4.72
2023-04-29T23:36:39.471Z,5.53
2023-04-29T23:39:06.173Z,4.95
2023-04-29T23:41:32.789Z,5.05
2023-04-29T23:43:59.390Z,5.00
2023-04-29T23:46:26.066Z,4.03
2023-04-29T23:48:52.799Z,4.10
2023-04-29T23:51:19.430Z,4.55
2023-04-29T23:53:46.033Z,4.07
2023-04-29T23:56:12.611Z,4.47
2023-04-29T23:58:39.322Z,4.97
